sensor_id;sensor_type;location;lat;lon;timestamp;P1;durP1;ratioP1;P2;durP2;ratioP2
42296;SDS011;28985;47.456;19.016;2022-08-05T00:00:14;8.48;;;7.85;;
42296;SDS011;28985;47.456;19.016;2022-08-05T00:02:45;5.97;;;5.53;;
42296;SDS011;28985;47.456;19.016;2022-08-05T00:05:17;7.20;;;6.70;;
42296;SDS011;28985;47.456;19.016;2022-08-05T00:08:07;5.30;;;4.88;;
42296;SDS011;28985;47.456;19.016;2022-08-05T00:10:54;7.18;;;5.45;;
42296;SDS011;28985;47.456;19.016;2022-08-05T00:13:25;6.72;;;4.80;;
42296;SDS011;28985;47.456;19.016;2022-08-05T00:16:05;7.38;;;5.53;;
42296;SDS011;28985;47.456;19.016;2022-08-05T00:18:34;5.50;;;5.00;;
42296;SDS011;28985;47.456;19.016;2022-08-05T00:21:03;6.30;;;4.90;;
42296;SDS011;28985;47.456;19.016;2022-08-05T00:23:33;5.80;;;4.90;;
42296;SDS011;28985;47.456;19.016;2022-08-05T00:26:18;7.15;;;6.43;;
42296;SDS011;28985;47.456;19.016;2022-08-05T00:28:45;5.57;;;5.07;;
42296;SDS011;28985;47.456;19.016;2022-08-05T00:31:14;5.68;;;5.28;;
42296;SDS011;28985;47.456;19.016;2022-08-05T00:34:01;5.57;;;5.07;;
42296;SDS011;28985;47.456;19.016;2022-08-05T00:36:49;6.30;;;4.30;;
42296;SDS011;28985;47.456;19.016;2022-08-05T00:39:35;6.35;;;4.72;;
42296;SDS011;28985;47.456;19.016;2022-08-05T00:42:28;4.63;;;4.22;;
42296;SDS011;28985;47.456;19.016;2022-08-05T00:44:57;4.90;;;4.50;;
42296;SDS011;28985;47.456;19.016;2022-08-05T00:47:24;4.60;;;4.30;;
42296;SDS011;28985;47.456;19.016;2022-08-05T00:50:11;6.43;;;4.47;;
42296;SDS011;28985;47.456;19.016;2022-08-05T00:52:38;4.75;;;4.45;;
42296;SDS011;28985;47.456;19.016;2022-08-05T00:55:05;5.55;;;4.70;;
42296;SDS011;28985;47.456;19.016;2022-08-05T00:57:32;4.30;;;4.00;;
42296;SDS011;28985;47.456;19.016;2022-08-05T01:00:18;4.22;;;3.90;;
42296;SDS011;28985;47.456;19.016;2022-08-05T01:02:47;9.13;;;4.60;;
42296;SDS011;28985;47.456;19.016;2022-08-05T01:05:15;5.47;;;4.30;;
42296;SDS011;28985;47.456;19.016;2022-08-05T01:07:42;4.47;;;3.58;;
42296;SDS011;28985;47.456;19.016;2022-08-05T01:10:36;4.30;;;3.90;;
42296;SDS011;28985;47.456;19.016;2022-08-05T01:16:12;5.03;;;4.38;;
42296;SDS011;28985;47.456;19.016;2022-08-05T01:18:53;5.13;;;4.07;;
42296;SDS011;28985;47.456;19.016;2022-08-05T01:29:51;3.85;;;3.60;;
42296;SDS011;28985;47.456;19.016;2022-08-05T01:32:22;5.00;;;4.05;;
42296;SDS011;28985;47.456;19.016;2022-08-05T01:37:57;4.95;;;4.22;;
42296;SDS011;28985;47.456;19.016;2022-08-05T01:40:20;4.65;;;4.20;;
42296;SDS011;28985;47.456;19.016;2022-08-05T01:42:54;4.78;;;4.38;;
42296;SDS011;28985;47.456;19.016;2022-08-05T01:45:24;4.88;;;4.47;;
42296;SDS011;28985;47.456;19.016;2022-08-05T01:48:00;6.60;;;5.10;;
42296;SDS011;28985;47.456;19.016;2022-08-05T01:50:36;6.97;;;4.38;;
42296;SDS011;28985;47.456;19.016;2022-08-05T01:53:09;5.28;;;4.10;;
42296;SDS011;28985;47.456;19.016;2022-08-05T01:55:39;8.43;;;3.90;;
42296;SDS011;28985;47.456;19.016;2022-08-05T01:58:08;14.02;;;4.50;;
42296;SDS011;28985;47.456;19.016;2022-08-05T02:00:43;4.65;;;4.35;;
42296;SDS011;28985;47.456;19.016;2022-08-05T02:03:22;7.32;;;4.93;;
42296;SDS011;28985;47.456;19.016;2022-08-05T02:05:57;5.65;;;5.18;;
42296;SDS011;28985;47.456;19.016;2022-08-05T02:08:28;5.13;;;4.65;;
42296;SDS011;28985;47.456;19.016;2022-08-05T02:11:09;5.47;;;4.60;;
42296;SDS011;28985;47.456;19.016;2022-08-05T02:13:46;5.05;;;4.70;;
42296;SDS011;28985;47.456;19.016;2022-08-05T02:16:21;4.18;;;3.78;;
42296;SDS011;28985;47.456;19.016;2022-08-05T02:19:05;4.55;;;4.05;;
42296;SDS011;28985;47.456;19.016;2022-08-05T02:21:43;4.22;;;3.83;;
42296;SDS011;28985;47.456;19.016;2022-08-05T02:24:18;4.53;;;4.22;;
42296;SDS011;28985;47.456;19.016;2022-08-05T02:26:49;3.90;;;3.60;;
42296;SDS011;28985;47.456;19.016;2022-08-05T02:29:21;7.75;;;4.93;;
42296;SDS011;28985;47.456;19.016;2022-08-05T02:32:10;4.03;;;3.40;;
42296;SDS011;28985;47.456;19.016;2022-08-05T02:34:49;5.70;;;3.83;;
42296;SDS011;28985;47.456;19.016;2022-08-05T02:37:20;6.43;;;4.25;;
42296;SDS011;28985;47.456;19.016;2022-08-05T02:39:50;11.77;;;3.85;;
42296;SDS011;28985;47.456;19.016;2022-08-05T02:42:17;6.82;;;4.10;;
42296;SDS011;28985;47.456;19.016;2022-08-05T02:44:51;4.55;;;3.42;;
42296;SDS011;28985;47.456;19.016;2022-08-05T02:47:18;3.40;;;3.10;;
42296;SDS011;28985;47.456;19.016;2022-08-05T02:49:46;3.35;;;3.15;;
42296;SDS011;28985;47.456;19.016;2022-08-05T02:52:14;3.53;;;3.22;;
42296;SDS011;28985;47.456;19.016;2022-08-05T02:54:55;4.85;;;3.80;;
42296;SDS011;28985;47.456;19.016;2022-08-05T02:57:27;3.95;;;3.10;;
42296;SDS011;28985;47.456;19.016;2022-08-05T03:00:15;3.67;;;3.33;;
42296;SDS011;28985;47.456;19.016;2022-08-05T03:02:42;4.15;;;3.17;;
42296;SDS011;28985;47.456;19.016;2022-08-05T03:05:11;3.28;;;3.08;;
42296;SDS011;28985;47.456;19.016;2022-08-05T03:07:39;3.22;;;2.92;;
42296;SDS011;28985;47.456;19.016;2022-08-05T03:10:27;4.95;;;3.15;;
42296;SDS011;28985;47.456;19.016;2022-08-05T03:12:54;3.50;;;2.88;;
42296;SDS011;28985;47.456;19.016;2022-08-05T03:15:20;7.88;;;3.17;;
42296;SDS011;28985;47.456;19.016;2022-08-05T03:17:49;3.88;;;3.45;;
42296;SDS011;28985;47.456;19.016;2022-08-05T03:20:20;3.88;;;3.00;;
42296;SDS011;28985;47.456;19.016;2022-08-05T03:22:48;12.77;;;4.20;;
42296;SDS011;28985;47.456;19.016;2022-08-05T03:25:16;6.35;;;3.53;;
42296;SDS011;28985;47.456;19.016;2022-08-05T03:28:06;12.20;;;4.78;;
42296;SDS011;28985;47.456;19.016;2022-08-05T03:30:34;16.05;;;4.47;;
42296;SDS011;28985;47.456;19.016;2022-08-05T03:33:04;15.73;;;3.40;;
42296;SDS011;28985;47.456;19.016;2022-08-05T03:35:33;3.85;;;3.53;;
42296;SDS011;28985;47.456;19.016;2022-08-05T03:38:06;5.13;;;3.05;;
42296;SDS011;28985;47.456;19.016;2022-08-05T03:40:38;5.68;;;3.63;;
42296;SDS011;28985;47.456;19.016;2022-08-05T03:43:10;6.38;;;3.38;;
42296;SDS011;28985;47.456;19.016;2022-08-05T03:45:57;3.95;;;2.95;;
42296;SDS011;28985;47.456;19.016;2022-08-05T03:48:25;4.32;;;2.92;;
42296;SDS011;28985;47.456;19.016;2022-08-05T03:50:57;5.47;;;2.75;;
42296;SDS011;28985;47.456;19.016;2022-08-05T03:54:09;4.28;;;3.25;;
42296;SDS011;28985;47.456;19.016;2022-08-05T03:57:02;3.13;;;2.88;;
42296;SDS011;28985;47.456;19.016;2022-08-05T04:00:00;6.97;;;3.67;;
42296;SDS011;28985;47.456;19.016;2022-08-05T04:02:31;6.30;;;3.13;;
42296;SDS011;28985;47.456;19.016;2022-08-05T04:05:22;5.13;;;3.00;;
42296;SDS011;28985;47.456;19.016;2022-08-05T04:07:53;5.20;;;3.08;;
42296;SDS011;28985;47.456;19.016;2022-08-05T04:10:23;11.80;;;3.72;;
42296;SDS011;28985;47.456;19.016;2022-08-05T04:12:53;5.97;;;3.38;;
42296;SDS011;28985;47.456;19.016;2022-08-05T04:15:24;7.53;;;3.15;;
42296;SDS011;28985;47.456;19.016;2022-08-05T04:20:27;3.70;;;3.35;;
42296;SDS011;28985;47.456;19.016;2022-08-05T04:22:53;3.22;;;2.55;;
42296;SDS011;28985;47.456;19.016;2022-08-05T04:25:22;3.90;;;3.25;;
42296;SDS011;28985;47.456;19.016;2022-08-05T04:28:09;3.05;;;2.78;;
42296;SDS011;28985;47.456;19.016;2022-08-05T04:30:38;4.82;;;3.50;;
42296;SDS011;28985;47.456;19.016;2022-08-05T04:33:04;4.55;;;3.65;;
42296;SDS011;28985;47.456;19.016;2022-08-05T04:35:32;7.35;;;3.17;;
42296;SDS011;28985;47.456;19.016;2022-08-05T04:38:19;5.97;;;2.90;;
42296;SDS011;28985;47.456;19.016;2022-08-05T04:40:46;5.05;;;3.50;;
42296;SDS011;28985;47.456;19.016;2022-08-05T04:43:16;7.95;;;3.83;;
42296;SDS011;28985;47.456;19.016;2022-08-05T04:45:47;8.55;;;3.63;;
42296;SDS011;28985;47.456;19.016;2022-08-05T04:48:20;4.07;;;2.95;;
42296;SDS011;28985;47.456;19.016;2022-08-05T04:50:53;5.90;;;3.17;;
42296;SDS011;28985;47.456;19.016;2022-08-05T04:53:28;3.67;;;3.17;;
42296;SDS011;28985;47.456;19.016;2022-08-05T04:56:00;6.78;;;5.55;;
42296;SDS011;28985;47.456;19.016;2022-08-05T04:58:47;7.38;;;3.35;;
42296;SDS011;28985;47.456;19.016;2022-08-05T05:01:14;6.40;;;3.20;;
42296;SDS011;28985;47.456;19.016;2022-08-05T05:04:00;3.80;;;3.45;;
42296;SDS011;28985;47.456;19.016;2022-08-05T05:06:29;6.10;;;3.90;;
42296;SDS011;28985;47.456;19.016;2022-08-05T05:09:12;5.90;;;4.18;;
42296;SDS011;28985;47.456;19.016;2022-08-05T05:11:43;5.20;;;3.83;;
42296;SDS011;28985;47.456;19.016;2022-08-05T05:14:21;7.72;;;3.80;;
42296;SDS011;28985;47.456;19.016;2022-08-05T05:16:56;18.10;;;3.80;;
42296;SDS011;28985;47.456;19.016;2022-08-05T05:19:23;4.90;;;3.28;;
42296;SDS011;28985;47.456;19.016;2022-08-05T05:22:01;5.70;;;4.53;;
42296;SDS011;28985;47.456;19.016;2022-08-05T05:24:48;4.68;;;3.67;;
42296;SDS011;28985;47.456;19.016;2022-08-05T05:27:24;10.57;;;4.00;;
42296;SDS011;28985;47.456;19.016;2022-08-05T05:30:10;3.97;;;3.38;;
42296;SDS011;28985;47.456;19.016;2022-08-05T05:32:55;4.63;;;3.38;;
42296;SDS011;28985;47.456;19.016;2022-08-05T05:35:22;5.85;;;3.33;;
42296;SDS011;28985;47.456;19.016;2022-08-05T05:37:51;6.75;;;4.03;;
42296;SDS011;28985;47.456;19.016;2022-08-05T05:40:26;6.07;;;4.50;;
42296;SDS011;28985;47.456;19.016;2022-08-05T05:42:55;7.57;;;4.20;;
42296;SDS011;28985;47.456;19.016;2022-08-05T05:45:22;4.35;;;4.00;;
42296;SDS011;28985;47.456;19.016;2022-08-05T05:47:50;8.05;;;4.80;;
42296;SDS011;28985;47.456;19.016;2022-08-05T05:50:32;4.47;;;4.18;;
42296;SDS011;28985;47.456;19.016;2022-08-05T05:53:09;8.88;;;4.70;;
42296;SDS011;28985;47.456;19.016;2022-08-05T05:55:47;5.20;;;4.07;;
42296;SDS011;28985;47.456;19.016;2022-08-05T05:58:26;4.90;;;4.35;;
42296;SDS011;28985;47.456;19.016;2022-08-05T06:00:58;7.82;;;3.95;;
42296;SDS011;28985;47.456;19.016;2022-08-05T06:03:39;4.82;;;3.65;;
42296;SDS011;28985;47.456;19.016;2022-08-05T06:06:27;6.20;;;5.18;;
42296;SDS011;28985;47.456;19.016;2022-08-05T06:08:58;4.85;;;4.40;;
42296;SDS011;28985;47.456;19.016;2022-08-05T06:11:24;5.80;;;5.35;;
42296;SDS011;28985;47.456;19.016;2022-08-05T06:13:54;5.05;;;4.55;;
42296;SDS011;28985;47.456;19.016;2022-08-05T06:16:21;6.57;;;6.18;;
42296;SDS011;28985;47.456;19.016;2022-08-05T06:19:00;8.93;;;6.38;;
42296;SDS011;28985;47.456;19.016;2022-08-05T06:21:31;7.88;;;6.72;;
42296;SDS011;28985;47.456;19.016;2022-08-05T06:24:06;6.97;;;6.43;;
42296;SDS011;28985;47.456;19.016;2022-08-05T06:26:38;7.22;;;6.68;;
42296;SDS011;28985;47.456;19.016;2022-08-05T06:29:17;9.25;;;7.30;;
42296;SDS011;28985;47.456;19.016;2022-08-05T06:32:05;8.25;;;6.45;;
42296;SDS011;28985;47.456;19.016;2022-08-05T06:34:50;8.60;;;7.82;;
42296;SDS011;28985;47.456;19.016;2022-08-05T06:37:21;10.18;;;8.40;;
42296;SDS011;28985;47.456;19.016;2022-08-05T06:40:08;7.30;;;6.65;;
42296;SDS011;28985;47.456;19.016;2022-08-05T06:42:35;9.25;;;8.65;;
42296;SDS011;28985;47.456;19.016;2022-08-05T06:45:05;9.63;;;7.72;;
42296;SDS011;28985;47.456;19.016;2022-08-05T06:47:34;8.88;;;8.18;;
42296;SDS011;28985;47.456;19.016;2022-08-05T06:50:21;7.85;;;7.35;;
42296;SDS011;28985;47.456;19.016;2022-08-05T06:52:48;10.80;;;9.80;;
42296;SDS011;28985;47.456;19.016;2022-08-05T06:55:29;10.73;;;10.02;;
42296;SDS011;28985;47.456;19.016;2022-08-05T06:58:02;10.65;;;9.70;;
42296;SDS011;28985;47.456;19.016;2022-08-05T07:00:49;13.48;;;12.45;;
42296;SDS011;28985;47.456;19.016;2022-08-05T07:03:16;17.23;;;16.05;;
42296;SDS011;28985;47.456;19.016;2022-08-05T07:05:43;15.70;;;14.55;;
42296;SDS011;28985;47.456;19.016;2022-08-05T07:08:11;17.00;;;16.02;;
42296;SDS011;28985;47.456;19.016;2022-08-05T07:10:38;21.95;;;20.95;;
42296;SDS011;28985;47.456;19.016;2022-08-05T07:13:19;19.55;;;18.25;;
42296;SDS011;28985;47.456;19.016;2022-08-05T07:16:25;24.33;;;22.98;;
42296;SDS011;28985;47.456;19.016;2022-08-05T07:19:32;23.92;;;22.38;;
42296;SDS011;28985;47.456;19.016;2022-08-05T07:22:19;16.45;;;15.00;;
42296;SDS011;28985;47.456;19.016;2022-08-05T07:24:58;16.25;;;15.00;;
42296;SDS011;28985;47.456;19.016;2022-08-05T07:27:47;18.27;;;17.45;;
42296;SDS011;28985;47.456;19.016;2022-08-05T07:30:29;20.20;;;19.20;;
42296;SDS011;28985;47.456;19.016;2022-08-05T07:33:03;30.15;;;28.50;;
42296;SDS011;28985;47.456;19.016;2022-08-05T07:35:35;20.13;;;19.30;;
42296;SDS011;28985;47.456;19.016;2022-08-05T07:38:23;21.80;;;20.70;;
42296;SDS011;28985;47.456;19.016;2022-08-05T07:41:07;18.80;;;17.90;;
42296;SDS011;28985;47.456;19.016;2022-08-05T07:43:56;18.83;;;18.02;;
42296;SDS011;28985;47.456;19.016;2022-08-05T07:46:24;20.33;;;19.52;;
42296;SDS011;28985;47.456;19.016;2022-08-05T07:48:52;27.20;;;26.10;;
42296;SDS011;28985;47.456;19.016;2022-08-05T07:51:30;25.85;;;24.77;;
42296;SDS011;28985;47.456;19.016;2022-08-05T07:54:06;30.20;;;28.90;;
42296;SDS011;28985;47.456;19.016;2022-08-05T07:56:36;37.20;;;35.47;;
42296;SDS011;28985;47.456;19.016;2022-08-05T07:59:23;34.90;;;33.20;;
42296;SDS011;28985;47.456;19.016;2022-08-05T08:02:05;41.70;;;39.83;;
42296;SDS011;28985;47.456;19.016;2022-08-05T08:04:42;44.92;;;43.10;;
42296;SDS011;28985;47.456;19.016;2022-08-05T08:07:10;50.17;;;47.72;;
42296;SDS011;28985;47.456;19.016;2022-08-05T08:09:37;53.58;;;51.13;;
42296;SDS011;28985;47.456;19.016;2022-08-05T08:12:04;60.03;;;57.58;;
42296;SDS011;28985;47.456;19.016;2022-08-05T08:14:51;61.13;;;58.53;;
42296;SDS011;28985;47.456;19.016;2022-08-05T08:17:17;70.18;;;67.10;;
42296;SDS011;28985;47.456;19.016;2022-08-05T08:19:47;75.20;;;72.10;;
42296;SDS011;28985;47.456;19.016;2022-08-05T08:22:33;74.93;;;72.03;;
42296;SDS011;28985;47.456;19.016;2022-08-05T08:25:00;62.50;;;59.60;;
42296;SDS011;28985;47.456;19.016;2022-08-05T08:27:28;66.80;;;64.22;;
42296;SDS011;28985;47.456;19.016;2022-08-05T08:30:10;66.60;;;64.00;;
42296;SDS011;28985;47.456;19.016;2022-08-05T08:32:57;65.82;;;63.13;;
42296;SDS011;28985;47.456;19.016;2022-08-05T08:35:29;67.95;;;64.93;;
42296;SDS011;28985;47.456;19.016;2022-08-05T08:38:06;74.47;;;71.53;;
42296;SDS011;28985;47.456;19.016;2022-08-05T08:40:33;75.90;;;72.75;;
42296;SDS011;28985;47.456;19.016;2022-08-05T08:43:01;82.00;;;78.70;;
42296;SDS011;28985;47.456;19.016;2022-08-05T08:45:48;85.85;;;82.60;;
42296;SDS011;28985;47.456;19.016;2022-08-05T08:48:17;94.43;;;90.75;;
42296;SDS011;28985;47.456;19.016;2022-08-05T08:51:05;101.30;;;97.18;;
42296;SDS011;28985;47.456;19.016;2022-08-05T08:53:52;107.82;;;103.63;;
42296;SDS011;28985;47.456;19.016;2022-08-05T08:56:19;114.80;;;110.25;;
42296;SDS011;28985;47.456;19.016;2022-08-05T08:58:47;122.45;;;117.70;;
42296;SDS011;28985;47.456;19.016;2022-08-05T09:01:16;133.55;;;128.13;;
42296;SDS011;28985;47.456;19.016;2022-08-05T09:03:45;136.63;;;131.32;;
42296;SDS011;28985;47.456;19.016;2022-08-05T09:06:21;150.02;;;143.98;;
42296;SDS011;28985;47.456;19.016;2022-08-05T09:08:53;150.87;;;144.47;;
42296;SDS011;28985;47.456;19.016;2022-08-05T09:11:20;139.20;;;133.80;;
42296;SDS011;28985;47.456;19.016;2022-08-05T09:14:07;170.13;;;163.38;;
42296;SDS011;28985;47.456;19.016;2022-08-05T09:16:55;157.05;;;150.95;;
42296;SDS011;28985;47.456;19.016;2022-08-05T09:19:23;159.82;;;153.18;;
42296;SDS011;28985;47.456;19.016;2022-08-05T09:21:53;136.15;;;130.95;;
42296;SDS011;28985;47.456;19.016;2022-08-05T09:24:40;127.03;;;122.10;;
42296;SDS011;28985;47.456;19.016;2022-08-05T09:27:20;135.10;;;128.57;;
42296;SDS011;28985;47.456;19.016;2022-08-05T09:30:22;141.35;;;135.95;;
42296;SDS011;28985;47.456;19.016;2022-08-05T09:32:49;137.57;;;132.32;;
42296;SDS011;28985;47.456;19.016;2022-08-05T09:35:17;127.53;;;122.55;;
42296;SDS011;28985;47.456;19.016;2022-08-05T09:37:52;109.22;;;104.90;;
42296;SDS011;28985;47.456;19.016;2022-08-05T09:40:40;112.50;;;107.85;;
42296;SDS011;28985;47.456;19.016;2022-08-05T09:43:35;120.25;;;115.63;;
42296;SDS011;28985;47.456;19.016;2022-08-05T09:46:07;130.85;;;125.65;;
42296;SDS011;28985;47.456;19.016;2022-08-05T09:48:56;139.73;;;134.25;;
42296;SDS011;28985;47.456;19.016;2022-08-05T09:51:43;119.28;;;114.57;;
42296;SDS011;28985;47.456;19.016;2022-08-05T09:54:15;111.05;;;105.88;;
42296;SDS011;28985;47.456;19.016;2022-08-05T09:56:54;116.55;;;111.75;;
42296;SDS011;28985;47.456;19.016;2022-08-05T09:59:22;121.40;;;116.72;;
42296;SDS011;28985;47.456;19.016;2022-08-05T10:01:52;124.70;;;119.60;;
42296;SDS011;28985;47.456;19.016;2022-08-05T10:04:30;129.15;;;124.15;;
42296;SDS011;28985;47.456;19.016;2022-08-05T10:07:04;134.02;;;128.30;;
42296;SDS011;28985;47.456;19.016;2022-08-05T10:09:53;130.77;;;125.72;;
42296;SDS011;28985;47.456;19.016;2022-08-05T10:12:48;128.32;;;123.47;;
42296;SDS011;28985;47.456;19.016;2022-08-05T10:20:43;135.73;;;130.57;;
42296;SDS011;28985;47.456;19.016;2022-08-05T10:23:23;128.95;;;123.97;;
42296;SDS011;28985;47.456;19.016;2022-08-05T10:26:12;137.85;;;132.55;;
42296;SDS011;28985;47.456;19.016;2022-08-05T10:28:40;132.05;;;126.80;;
42296;SDS011;28985;47.456;19.016;2022-08-05T10:31:12;125.88;;;121.15;;
42296;SDS011;28985;47.456;19.016;2022-08-05T10:34:00;125.50;;;120.45;;
42296;SDS011;28985;47.456;19.016;2022-08-05T10:36:27;129.48;;;124.63;;
42296;SDS011;28985;47.456;19.016;2022-08-05T10:38:58;164.60;;;157.95;;
42296;SDS011;28985;47.456;19.016;2022-08-05T10:41:49;129.60;;;124.53;;
42296;SDS011;28985;47.456;19.016;2022-08-05T10:44:26;134.73;;;129.25;;
42296;SDS011;28985;47.456;19.016;2022-08-05T10:46:55;117.45;;;112.95;;
42296;SDS011;28985;47.456;19.016;2022-08-05T10:49:23;132.05;;;126.88;;
42296;SDS011;28985;47.456;19.016;2022-08-05T10:51:58;132.63;;;126.82;;
42296;SDS011;28985;47.456;19.016;2022-08-05T10:55:01;83.45;;;80.13;;
42296;SDS011;28985;47.456;19.016;2022-08-05T10:57:32;130.20;;;125.03;;
42296;SDS011;28985;47.456;19.016;2022-08-05T11:00:19;161.48;;;155.23;;
42296;SDS011;28985;47.456;19.016;2022-08-05T11:06:12;79.80;;;76.57;;
42296;SDS011;28985;47.456;19.016;2022-08-05T11:17:49;46.53;;;44.72;;
42296;SDS011;28985;47.456;19.016;2022-08-05T11:20:33;42.05;;;40.35;;
42296;SDS011;28985;47.456;19.016;2022-08-05T11:23:26;65.13;;;62.63;;
42296;SDS011;28985;47.456;19.016;2022-08-05T11:28:57;51.63;;;49.40;;
42296;SDS011;28985;47.456;19.016;2022-08-05T11:31:38;52.25;;;50.22;;
42296;SDS011;28985;47.456;19.016;2022-08-05T11:34:36;41.47;;;39.95;;
42296;SDS011;28985;47.456;19.016;2022-08-05T11:37:12;39.60;;;38.00;;
42296;SDS011;28985;47.456;19.016;2022-08-05T11:40:54;45.15;;;43.35;;
42296;SDS011;28985;47.456;19.016;2022-08-05T11:43:29;41.78;;;40.17;;
42296;SDS011;28985;47.456;19.016;2022-08-05T11:46:16;41.45;;;39.65;;
42296;SDS011;28985;47.456;19.016;2022-08-05T11:48:59;42.17;;;40.47;;
42296;SDS011;28985;47.456;19.016;2022-08-05T11:51:27;43.03;;;41.35;;
42296;SDS011;28985;47.456;19.016;2022-08-05T11:54:22;43.67;;;41.78;;
42296;SDS011;28985;47.456;19.016;2022-08-05T11:56:59;37.40;;;35.78;;
42296;SDS011;28985;47.456;19.016;2022-08-05T11:59:34;40.28;;;38.60;;
42296;SDS011;28985;47.456;19.016;2022-08-05T12:02:15;38.35;;;36.85;;
42296;SDS011;28985;47.456;19.016;2022-08-05T12:04:57;34.15;;;32.55;;
42296;SDS011;28985;47.456;19.016;2022-08-05T12:07:34;37.90;;;36.30;;
42296;SDS011;28985;47.456;19.016;2022-08-05T12:10:26;37.42;;;35.92;;
42296;SDS011;28985;47.456;19.016;2022-08-05T12:13:12;37.47;;;35.97;;
42296;SDS011;28985;47.456;19.016;2022-08-05T12:16:06;37.63;;;35.88;;
42296;SDS011;28985;47.456;19.016;2022-08-05T12:18:40;29.42;;;28.33;;
42296;SDS011;28985;47.456;19.016;2022-08-05T12:23:59;24.15;;;22.92;;
42296;SDS011;28985;47.456;19.016;2022-08-05T12:29:03;20.92;;;19.85;;
42296;SDS011;28985;47.456;19.016;2022-08-05T12:31:35;20.52;;;19.60;;
42296;SDS011;28985;47.456;19.016;2022-08-05T12:34:11;24.50;;;22.63;;
42296;SDS011;28985;47.456;19.016;2022-08-05T12:36:46;21.40;;;20.33;;
42296;SDS011;28985;47.456;19.016;2022-08-05T12:39:14;28.60;;;27.45;;
42296;SDS011;28985;47.456;19.016;2022-08-05T12:41:43;21.92;;;20.85;;
42296;SDS011;28985;47.456;19.016;2022-08-05T12:44:12;20.77;;;19.98;;
42296;SDS011;28985;47.456;19.016;2022-08-05T12:46:59;19.70;;;18.83;;
42296;SDS011;28985;47.456;19.016;2022-08-05T12:49:36;20.83;;;19.73;;
42296;SDS011;28985;47.456;19.016;2022-08-05T12:52:24;19.88;;;19.05;;
42296;SDS011;28985;47.456;19.016;2022-08-05T12:55:00;19.65;;;18.60;;
42296;SDS011;28985;47.456;19.016;2022-08-05T12:57:27;19.85;;;18.95;;
42296;SDS011;28985;47.456;19.016;2022-08-05T13:00:21;19.45;;;18.67;;
42296;SDS011;28985;47.456;19.016;2022-08-05T13:03:11;20.73;;;19.67;;
42296;SDS011;28985;47.456;19.016;2022-08-05T13:05:40;21.25;;;20.35;;
42296;SDS011;28985;47.456;19.016;2022-08-05T13:08:07;21.42;;;20.40;;
42296;SDS011;28985;47.456;19.016;2022-08-05T13:10:34;21.60;;;20.65;;
42296;SDS011;28985;47.456;19.016;2022-08-05T13:13:18;20.63;;;19.70;;
42296;SDS011;28985;47.456;19.016;2022-08-05T13:16:10;19.95;;;19.23;;
42296;SDS011;28985;47.456;19.016;2022-08-05T13:18:49;22.08;;;21.13;;
42296;SDS011;28985;47.456;19.016;2022-08-05T13:21:26;20.08;;;19.08;;
42296;SDS011;28985;47.456;19.016;2022-08-05T13:24:13;21.13;;;20.13;;
42296;SDS011;28985;47.456;19.016;2022-08-05T13:27:02;20.70;;;19.40;;
42296;SDS011;28985;47.456;19.016;2022-08-05T13:29:28;19.77;;;19.05;;
42296;SDS011;28985;47.456;19.016;2022-08-05T13:32:03;19.10;;;18.30;;
42296;SDS011;28985;47.456;19.016;2022-08-05T13:34:31;19.55;;;18.67;;
42296;SDS011;28985;47.456;19.016;2022-08-05T13:36:57;19.38;;;18.58;;
42296;SDS011;28985;47.456;19.016;2022-08-05T13:39:26;23.05;;;22.05;;
42296;SDS011;28985;47.456;19.016;2022-08-05T13:42:12;22.83;;;21.88;;
42296;SDS011;28985;47.456;19.016;2022-08-05T13:44:42;23.70;;;22.52;;
42296;SDS011;28985;47.456;19.016;2022-08-05T13:47:11;23.05;;;21.80;;
42296;SDS011;28985;47.456;19.016;2022-08-05T13:49:59;23.83;;;22.88;;
42296;SDS011;28985;47.456;19.016;2022-08-05T13:52:30;23.58;;;22.58;;
42296;SDS011;28985;47.456;19.016;2022-08-05T13:55:00;22.95;;;21.90;;
42296;SDS011;28985;47.456;19.016;2022-08-05T13:57:33;22.77;;;21.77;;
42296;SDS011;28985;47.456;19.016;2022-08-05T14:00:17;23.13;;;22.17;;
42296;SDS011;28985;47.456;19.016;2022-08-05T14:02:54;23.10;;;21.98;;
42296;SDS011;28985;47.456;19.016;2022-08-05T14:05:21;22.25;;;21.30;;
42296;SDS011;28985;47.456;19.016;2022-08-05T14:08:08;21.75;;;20.65;;
42296;SDS011;28985;47.456;19.016;2022-08-05T14:10:46;23.85;;;22.75;;
42296;SDS011;28985;47.456;19.016;2022-08-05T14:13:13;22.75;;;21.75;;
42296;SDS011;28985;47.456;19.016;2022-08-05T14:15:40;24.70;;;23.33;;
42296;SDS011;28985;47.456;19.016;2022-08-05T14:18:27;23.52;;;22.63;;
42296;SDS011;28985;47.456;19.016;2022-08-05T14:20:54;21.38;;;20.48;;
42296;SDS011;28985;47.456;19.016;2022-08-05T14:23:21;20.90;;;20.10;;
42296;SDS011;28985;47.456;19.016;2022-08-05T14:25:54;21.15;;;20.15;;
42296;SDS011;28985;47.456;19.016;2022-08-05T14:28:25;18.48;;;17.58;;
42296;SDS011;28985;47.456;19.016;2022-08-05T14:30:54;18.92;;;18.08;;
42296;SDS011;28985;47.456;19.016;2022-08-05T14:33:21;17.42;;;16.58;;
42296;SDS011;28985;47.456;19.016;2022-08-05T14:35:49;18.15;;;17.35;;
42296;SDS011;28985;47.456;19.016;2022-08-05T14:38:17;17.05;;;16.40;;
42296;SDS011;28985;47.456;19.016;2022-08-05T14:40:59;17.50;;;16.60;;
42296;SDS011;28985;47.456;19.016;2022-08-05T14:43:35;16.48;;;15.88;;
42296;SDS011;28985;47.456;19.016;2022-08-05T14:46:23;16.70;;;15.65;;
42296;SDS011;28985;47.456;19.016;2022-08-05T14:51:22;17.42;;;16.73;;
42296;SDS011;28985;47.456;19.016;2022-08-05T14:53:51;16.73;;;15.93;;
42296;SDS011;28985;47.456;19.016;2022-08-05T14:56:38;17.80;;;16.77;;
42296;SDS011;28985;47.456;19.016;2022-08-05T14:59:09;17.50;;;16.80;;
42296;SDS011;28985;47.456;19.016;2022-08-05T15:01:37;18.40;;;17.60;;
42296;SDS011;28985;47.456;19.016;2022-08-05T15:04:14;18.80;;;17.90;;
42296;SDS011;28985;47.456;19.016;2022-08-05T15:06:46;18.10;;;17.40;;
42296;SDS011;28985;47.456;19.016;2022-08-05T15:09:15;18.48;;;17.45;;
42296;SDS011;28985;47.456;19.016;2022-08-05T15:12:05;18.80;;;18.00;;
42296;SDS011;28985;47.456;19.016;2022-08-05T15:14:34;18.55;;;17.60;;
42296;SDS011;28985;47.456;19.016;2022-08-05T15:17:14;18.80;;;17.88;;
42296;SDS011;28985;47.456;19.016;2022-08-05T15:20:02;19.33;;;18.63;;
42296;SDS011;28985;47.456;19.016;2022-08-05T15:22:30;19.63;;;18.55;;
42296;SDS011;28985;47.456;19.016;2022-08-05T15:24:56;19.08;;;18.13;;
42296;SDS011;28985;47.456;19.016;2022-08-05T15:27:24;20.00;;;19.00;;
42296;SDS011;28985;47.456;19.016;2022-08-05T15:29:57;19.23;;;18.40;;
42296;SDS011;28985;47.456;19.016;2022-08-05T15:32:24;20.90;;;19.85;;
42296;SDS011;28985;47.456;19.016;2022-08-05T15:34:53;19.35;;;18.55;;
42296;SDS011;28985;47.456;19.016;2022-08-05T15:37:21;18.98;;;18.08;;
42296;SDS011;28985;47.456;19.016;2022-08-05T15:40:08;17.60;;;16.92;;
42296;SDS011;28985;47.456;19.016;2022-08-05T15:42:56;17.75;;;16.92;;
42296;SDS011;28985;47.456;19.016;2022-08-05T15:45:35;17.30;;;16.40;;
42296;SDS011;28985;47.456;19.016;2022-08-05T15:48:04;19.23;;;18.42;;
42296;SDS011;28985;47.456;19.016;2022-08-05T15:50:32;17.48;;;16.65;;
42296;SDS011;28985;47.456;19.016;2022-08-05T15:52:59;18.88;;;18.17;;